Time;durP1;ratioP1;P1;durP2;ratioP2;P2;SDS_P1;SDS_P2;PMS_P1;PMS_P2;Temp;Humidity;BMP_temperature;BMP_pressure;BME280_temperature;BME280_humidity;BME280_pressure;Samples;Min_cycle;Max_cycle;Signal;HPM_P1;HPM_P2
2023/02/28 00:00:47;;;;;;;10.73;2.58;;;;;;;9.85;35.02;102747.53;4971456;28;20027;-62
2023/02/28 00:03:13;;;;;;;4.25;2.58;;;;;;;9.82;34.68;102751.25;4971756;28;20089;-62
2023/02/28 00:05:38;;;;;;;2.80;2.47;;;;;;;9.80;34.87;102755.78;4971329;28;20043;-61
2023/02/28 00:08:04;;;;;;;3.25;2.42;;;;;;;9.77;34.31;102755.94;4971018;28;20049;-61
2023/02/28 00:10:30;;;;;;;6.07;2.83;;;;;;;9.77;34.17;102747.91;4971534;28;20038;-61
2023/02/28 00:13:00;;;;;;;5.30;2.70;;;;;;;9.72;34.70;102743.72;4989294;28;20098;-62
2023/02/28 00:15:26;;;;;;;2.60;2.22;;;;;;;9.73;34.13;102749.03;4974782;28;20034;-62
2023/02/28 00:17:52;;;;;;;5.10;2.72;;;;;;;9.73;34.77;102746.34;4959270;28;20030;-61
2023/02/28 00:20:18;;;;;;;5.13;2.45;;;;;;;9.72;34.88;102747.28;4974750;28;20055;-62
2023/02/28 00:22:45;;;;;;;5.43;2.80;;;;;;;9.69;34.90;102741.19;4990824;28;20063;-62
2023/02/28 00:25:13;;;;;;;6.43;3.38;;;;;;;9.68;34.70;102751.06;4975788;28;20035;-61
2023/02/28 00:27:39;;;;;;;5.60;3.25;;;;;;;9.68;34.76;102751.06;4974708;28;20034;-61
2023/02/28 00:30:05;;;;;;;4.22;2.78;;;;;;;9.65;34.74;102750.34;4974847;28;20031;-62
2023/02/28 00:32:31;;;;;;;5.07;2.85;;;;;;;9.58;34.34;102748.91;4974543;28;20038;-62
2023/02/28 00:34:56;;;;;;;8.27;3.88;;;;;;;9.60;34.69;102753.25;4974170;28;20085;-61
2023/02/28 00:37:22;;;;;;;6.10;3.38;;;;;;;9.54;34.38;102752.69;4974575;28;20035;-62
2023/02/28 00:39:47;;;;;;;3.22;2.50;;;;;;;9.55;34.18;102760.63;4974303;28;20027;-62
2023/02/28 00:42:14;;;;;;;3.35;2.40;;;;;;;9.53;34.39;102762.50;4974908;28;20780;-61
2023/02/28 00:44:39;;;;;;;5.75;3.08;;;;;;;9.50;34.82;102757.31;4975805;28;20058;-61
2023/02/28 00:47:05;;;;;;;3.92;2.83;;;;;;;9.49;34.45;102760.91;4974326;28;20050;-62
2023/02/28 00:49:30;;;;;;;2.95;2.30;;;;;;;9.47;35.14;102762.81;4973951;28;20544;-62
2023/02/28 00:51:56;;;;;;;5.07;2.97;;;;;;;9.45;34.95;102763.81;4972411;28;20043;-62
2023/02/28 00:54:22;;;;;;;3.65;2.55;;;;;;;9.44;34.21;102765.63;4974199;28;20034;-61
2023/02/28 00:56:48;;;;;;;3.72;2.72;;;;;;;9.41;34.96;102752.41;4974417;28;20022;-61
2023/02/28 00:59:15;;;;;;;4.80;3.05;;;;;;;9.38;35.19;102753.41;4975368;28;20054;-61
2023/02/28 01:01:41;;;;;;;5.68;2.47;;;;;;;9.40;35.00;102768.53;4973984;28;20030;-61
2023/02/28 01:04:06;;;;;;;3.63;3.00;;;;;;;9.36;34.75;102759.78;4973869;28;20035;-61
2023/02/28 01:06:32;;;;;;;4.95;2.40;;;;;;;9.34;35.44;102767.03;4957852;28;20525;-61
2023/02/28 01:08:58;;;;;;;6.38;2.67;;;;;;;9.36;34.66;102771.34;4974384;28;20046;-62
2023/02/28 01:11:24;;;;;;;4.57;2.42;;;;;;;9.35;34.51;102768.75;4989947;28;20502;-61
2023/02/28 01:13:49;;;;;;;5.57;2.40;;;;;;;9.34;35.18;102767.03;4973665;28;20030;-62
2023/02/28 01:16:15;;;;;;;2.85;2.53;;;;;;;9.34;35.55;102775.03;4973598;28;20050;-61
2023/02/28 01:18:40;;;;;;;5.85;3.08;;;;;;;9.30;34.81;102770.75;4973603;28;20046;-62
2023/02/28 01:21:08;;;;;;;7.45;2.63;;;;;;;9.32;35.45;102774.25;4975324;28;20085;-61
2023/02/28 01:23:33;;;;;;;4.45;2.33;;;;;;;9.28;34.85;102769.97;4973015;28;20038;-63
2023/02/28 01:26:12;;;;;;;4.43;2.83;;;;;;;9.28;34.53;102783.34;4973469;28;20039;-62
2023/02/28 01:28:38;;;;;;;5.57;2.60;;;;;;;9.26;35.12;102769.19;4989589;28;20042;-62
2023/02/28 01:31:03;;;;;;;5.97;2.50;;;;;;;9.25;34.55;102778.16;4976559;28;20042;-62
2023/02/28 01:33:29;;;;;;;9.25;3.05;;;;;;;9.24;35.53;102773.75;4960448;28;20117;-62
2023/02/28 01:36:02;;;;;;;5.72;2.58;;;;;;;9.20;34.65;102764.13;4977377;28;20081;-62
2023/02/28 01:38:28;;;;;;;7.70;2.83;;;;;;;9.21;34.62;102768.56;4976397;28;20177;-63
2023/02/28 01:40:54;;;;;;;7.15;3.15;;;;;;;9.20;35.02;102765.00;4976479;28;20122;-61
2023/02/28 01:43:28;;;;;;;8.05;2.75;;;;;;;9.20;34.74;102766.81;4976365;28;20498;-61
2023/02/28 01:45:55;;;;;;;6.68;2.97;;;;;;;9.18;35.57;102764.22;4992622;28;20494;-61
2023/02/28 01:48:27;;;;;;;6.15;3.17;;;;;;;9.16;35.69;102759.84;4976106;28;20085;-61
2023/02/28 01:50:54;;;;;;;6.40;2.80;;;;;;;9.17;34.71;102758.94;4977419;28;20081;-61
2023/02/28 01:53:23;;;;;;;3.90;2.60;;;;;;;9.14;35.07;102753.72;4976147;28;20069;-62
2023/02/28 01:55:50;;;;;;;8.10;2.97;;;;;;;9.13;35.56;102751.97;4992442;28;20046;-63
2023/02/28 01:58:15;;;;;;;3.88;2.90;;;;;;;9.11;35.88;102751.19;4976285;28;20118;-61
2023/02/28 02:00:42;;;;;;;6.15;3.45;;;;;;;9.11;35.64;102753.88;4992281;28;20164;-62
2023/02/28 02:03:13;;;;;;;6.53;2.72;;;;;;;9.10;34.90;102761.00;4992625;28;20061;-61
2023/02/28 02:05:40;;;;;;;7.68;2.95;;;;;;;9.09;35.80;102750.41;4992171;28;20039;-62
2023/02/28 02:08:11;;;;;;;8.15;3.83;;;;;;;9.08;35.27;102746.00;5008508;28;20030;-62
2023/02/28 02:10:43;;;;;;;4.13;3.05;;;;;;;9.04;35.00;102741.75;4975724;28;20256;-61
2023/02/28 02:13:11;;;;;;;5.18;2.80;;;;;;;9.07;35.88;102741.59;4992026;28;20422;-61
2023/02/28 02:16:06;;;;;;;3.90;2.78;;;;;;;9.04;34.83;102736.41;5008571;28;20042;-61
2023/02/28 02:18:54;;;;;;;4.70;2.70;;;;;;;9.04;35.26;102736.41;4994928;28;20045;-61
2023/02/28 02:21:28;;;;;;;6.05;2.88;;;;;;;9.02;34.85;102743.59;4993863;28;20034;-62
2023/02/28 02:23:54;;;;;;;6.72;3.00;;;;;;;8.98;36.12;102742.03;4993670;28;20449;-61
2023/02/28 02:26:39;;;;;;;6.97;2.83;;;;;;;8.95;34.97;102732.34;4991902;28;20047;-61
2023/02/28 02:29:10;;;;;;;5.25;2.80;;;;;;;8.93;35.26;102738.72;4993025;28;20045;-61
2023/02/28 02:32:12;;;;;;;9.20;3.00;;;;;;;8.91;36.17;102730.75;4992110;28;20030;-61
2023/02/28 02:34:49;;;;;;;3.97;2.35;;;;;;;8.88;36.31;102727.38;4992431;28;20421;-61
2023/02/28 02:37:17;;;;;;;4.57;2.83;;;;;;;8.87;35.35;102736.31;4991600;28;20046;-63
2023/02/28 02:40:05;;;;;;;7.28;2.92;;;;;;;8.83;35.43;102721.34;4991629;28;20121;-62
2023/02/28 02:42:39;;;;;;;6.78;2.70;;;;;;;8.83;35.14;102726.69;4991647;28;20092;-62
2023/02/28 02:45:35;;;;;;;8.23;3.13;;;;;;;8.79;35.25;102726.84;4993106;28;20130;-61
2023/02/28 02:48:02;;;;;;;5.88;3.60;;;;;;;8.77;35.11;102723.38;4985330;28;20057;-61
2023/02/28 02:50:39;;;;;;;5.63;3.20;;;;;;;8.73;35.19;102731.63;4975237;28;20050;-62
2023/02/28 02:53:05;;;;;;;3.85;2.95;;;;;;;8.67;35.13;102719.41;4992644;28;20042;-61
2023/02/28 02:55:34;;;;;;;7.22;3.20;;;;;;;8.67;36.49;102730.09;4975384;28;20042;-61
2023/02/28 02:58:03;;;;;;;6.40;3.45;;;;;;;8.64;35.35;102726.69;4975302;28;20030;-61
2023/02/28 03:00:37;;;;;;;5.85;3.45;;;;;;;8.59;35.09;102734.94;4975245;28;20026;-62
2023/02/28 03:03:03;;;;;;;5.30;2.70;;;;;;;8.58;35.39;102733.19;4993079;28;20041;-63
2023/02/28 03:05:34;;;;;;;6.55;2.90;;;;;;;8.52;36.34;102728.13;4975107;28;20034;-61
2023/02/28 03:08:05;;;;;;;7.43;3.72;;;;;;;8.53;36.18;102728.97;4991288;28;20039;-61
2023/02/28 03:10:33;;;;;;;10.65;2.67;;;;;;;8.53;35.30;102732.53;4959210;28;20117;-61
2023/02/28 03:13:09;;;;;;;6.07;3.72;;;;;;;8.51;36.01;102730.88;4992880;28;20050;-61
2023/02/28 03:15:48;;;;;;;4.82;3.40;;;;;;;8.50;35.33;102734.47;4993552;28;20085;-61
2023/02/28 03:18:37;;;;;;;7.18;3.05;;;;;;;8.47;36.48;102727.47;4992504;28;20034;-61
2023/02/28 03:21:20;;;;;;;7.30;3.25;;;;;;;8.48;36.11;102739.88;4993519;28;20122;-61
2023/02/28 03:23:54;;;;;;;9.18;3.15;;;;;;;8.44;35.45;102732.94;4975994;28;20066;-61
2023/02/28 03:26:23;;;;;;;7.78;3.20;;;;;;;8.48;35.53;102731.00;4975792;28;20045;-61
2023/02/28 03:28:57;;;;;;;5.80;3.00;;;;;;;8.47;36.80;102730.13;4975971;28;20037;-62
2023/02/28 03:31:37;;;;;;;7.20;3.28;;;;;;;8.47;36.69;102734.59;4975851;28;20039;-61
2023/02/28 03:34:05;;;;;;;4.97;3.38;;;;;;;8.46;35.96;102738.22;4975895;28;20034;-63
2023/02/28 03:36:43;;;;;;;6.68;3.00;;;;;;;8.44;36.93;102732.06;4991825;28;20034;-61
2023/02/28 03:39:16;;;;;;;10.20;3.45;;;;;;;8.42;35.58;102731.28;4960944;28;20048;-61
2023/02/28 03:41:52;;;;;;;5.80;3.25;;;;;;;8.42;35.83;102732.16;4975946;28;20092;-61
2023/02/28 03:44:41;;;;;;;8.75;3.85;;;;;;;8.43;35.77;102738.34;4959724;28;20038;-62
2023/02/28 03:47:10;;;;;;;5.03;3.40;;;;;;;8.45;35.85;102736.47;4978143;28;20549;-61
2023/02/28 03:49:43;;;;;;;3.75;2.90;;;;;;;8.46;36.23;102744.41;4979762;28;20030;-61
2023/02/28 03:52:09;;;;;;;8.88;3.17;;;;;;;8.47;36.52;102742.59;4988072;28;20116;-61
2023/02/28 03:54:41;;;;;;;7.75;3.08;;;;;;;8.45;36.65;102742.69;5015350;28;20113;-61
2023/02/28 03:57:10;;;;;;;10.20;3.08;;;;;;;8.46;35.89;102740.91;4982986;28;20053;-61
2023/02/28 03:59:45;;;;;;;5.90;3.28;;;;;;;8.44;35.30;102748.97;4982532;28;20085;-62
2023/02/28 04:02:10;;;;;;;5.72;3.53;;;;;;;8.43;36.00;102741.88;5016172;28;20404;-62
2023/02/28 04:04:36;;;;;;;8.00;3.30;;;;;;;8.37;35.76;102734.16;4998767;28;20112;-62
2023/02/28 04:07:05;;;;;;;7.22;2.95;;;;;;;8.38;35.99;102741.22;4998900;28;20064;-61
2023/02/28 04:09:30;;;;;;;4.30;3.33;;;;;;;8.34;36.91;102728.97;4982980;28;20505;-61
2023/02/28 04:11:56;;;;;;;4.75;3.38;;;;;;;8.34;36.12;102731.63;4979536;28;20042;-61
2023/02/28 04:14:21;;;;;;;6.85;3.15;;;;;;;8.29;35.80;102732.75;4996164;28;20047;-61
2023/02/28 04:16:47;;;;;;;8.30;3.45;;;;;;;8.26;36.97;102731.06;4995293;28;20039;-61
2023/02/28 04:19:14;;;;;;;9.90;3.50;;;;;;;8.24;36.99;102732.91;4996296;28;20387;-62
2023/02/28 04:21:44;;;;;;;4.78;2.95;;;;;;;8.22;36.70;102734.78;4979029;28;20452;-61
2023/02/28 04:24:15;;;;;;;4.63;2.85;;;;;;;8.19;36.42;102735.78;4979190;28;20378;-61
2023/02/28 04:26:45;;;;;;;4.47;3.00;;;;;;;8.18;36.12;102733.19;4963132;28;20045;-61
2023/02/28 04:29:13;;;;;;;5.00;3.08;;;;;;;8.16;35.86;102743.06;4994810;28;20061;-61
2023/02/28 04:31:38;;;;;;;5.65;2.53;;;;;;;8.15;35.70;102733.34;4996167;28;20521;-61
2023/02/28 04:34:04;;;;;;;4.93;2.80;;;;;;;8.11;36.19;102731.72;4994982;28;20038;-62
2023/02/28 04:36:29;;;;;;;6.22;3.15;;;;;;;8.11;36.50;102734.38;4996301;28;20045;-62
2023/02/28 04:38:55;;;;;;;5.68;3.20;;;;;;;8.08;36.67;102742.53;4996367;28;20073;-61
2023/02/28 04:41:21;;;;;;;3.55;3.00;;;;;;;8.08;35.77;102737.19;4994753;28;20035;-61
2023/02/28 04:43:46;;;;;;;6.97;3.55;;;;;;;8.06;36.75;102739.06;4995745;28;20077;-61
2023/02/28 04:46:11;;;;;;;3.88;3.10;;;;;;;8.06;36.55;102744.41;4978332;28;20064;-61
2023/02/28 04:48:39;;;;;;;6.65;3.13;;;;;;;8.04;36.28;102740.94;4978324;28;20042;-62
2023/02/28 04:51:12;;;;;;;9.75;3.80;;;;;;;8.03;36.37;102750.75;4992956;28;20051;-62
2023/02/28 04:53:39;;;;;;;4.25;2.95;;;;;;;7.99;35.95;102737.56;4978099;28;20120;-61
2023/02/28 04:56:05;;;;;;;6.07;3.22;;;;;;;7.98;37.42;102741.19;4978428;28;20418;-61
2023/02/28 04:58:31;;;;;;;6.85;3.03;;;;;;;7.97;36.40;102744.78;4977529;28;20030;-61
2023/02/28 05:01:12;;;;;;;6.03;3.42;;;;;;;7.93;36.09;102737.84;4994454;28;20494;-61
2023/02/28 05:03:40;;;;;;;5.60;3.00;;;;;;;7.89;36.26;102741.59;4979283;28;20382;-61
2023/02/28 05:06:07;;;;;;;8.35;3.28;;;;;;;7.89;37.49;102741.59;4978722;28;20026;-61
2023/02/28 05:08:32;;;;;;;9.43;3.53;;;;;;;7.86;36.12;102736.38;4978086;28;20088;-61
2023/02/28 05:10:58;;;;;;;5.53;2.78;;;;;;;7.87;36.83;102754.13;4994290;28;20030;-61
2023/02/28 05:13:23;;;;;;;7.15;2.90;;;;;;;7.84;36.50;102754.25;4977868;28;20035;-61
2023/02/28 05:15:49;;;;;;;7.50;3.15;;;;;;;7.82;35.82;102756.09;4977873;28;20512;-62
2023/02/28 05:18:14;;;;;;;7.57;3.92;;;;;;;7.81;36.09;102747.25;4995266;28;20042;-61
2023/02/28 05:20:40;;;;;;;6.18;3.42;;;;;;;7.80;37.74;102755.31;4994199;28;20039;-61
2023/02/28 05:23:05;;;;;;;6.00;3.08;;;;;;;7.79;37.54;102750.91;4977846;28;20039;-61
2023/02/28 05:25:30;;;;;;;8.63;3.10;;;;;;;7.77;36.40;102756.31;4977742;28;20038;-61
2023/02/28 05:27:56;;;;;;;4.95;2.95;;;;;;;7.76;36.20;102751.03;4977773;28;20101;-61
2023/02/28 05:30:21;;;;;;;5.78;3.35;;;;;;;7.75;36.83;102759.97;4977441;28;20387;-62
2023/02/28 05:32:52;;;;;;;5.97;2.65;;;;;;;7.75;37.94;102757.28;4994228;28;20116;-61
2023/02/28 05:35:18;;;;;;;3.92;2.35;;;;;;;7.74;37.55;102752.88;4993821;28;20128;-61
2023/02/28 05:37:43;;;;;;;7.53;3.17;;;;;;;7.73;37.48;102761.84;4993779;28;20471;-61
2023/02/28 05:40:12;;;;;;;6.40;2.97;;;;;;;7.72;37.71;102760.97;4977458;28;20034;-62
2023/02/28 05:42:37;;;;;;;6.57;3.35;;;;;;;7.71;36.98;102761.88;4978102;28;20134;-61
2023/02/28 05:45:04;;;;;;;4.80;2.75;;;;;;;7.72;36.74;102760.97;4993868;28;20454;-61
2023/02/28 05:47:29;;;;;;;4.47;2.65;;;;;;;7.73;36.72;102761.84;4977415;28;20053;-61
2023/02/28 05:49:55;;;;;;;8.68;2.80;;;;;;;7.73;36.34;102764.50;4977283;28;20062;-61
2023/02/28 05:52:20;;;;;;;9.82;3.50;;;;;;;7.75;36.36;102773.31;4973972;28;20133;-61
2023/02/28 05:54:48;;;;;;;12.10;3.10;;;;;;;7.73;36.87;102761.84;4974089;28;20066;-61
2023/02/28 05:57:14;;;;;;;7.50;3.53;;;;;;;7.73;36.57;102767.16;4974518;28;20085;-61
2023/02/28 05:59:40;;;;;;;7.72;3.03;;;;;;;7.74;37.49;102766.22;4973841;28;20023;-61
2023/02/28 06:02:09;;;;;;;9.73;2.90;;;;;;;7.72;37.61;102768.09;4973818;28;20057;-61
2023/02/28 06:04:34;;;;;;;7.18;2.97;;;;;;;7.71;37.40;102769.88;4990004;28;20114;-61
2023/02/28 06:07:00;;;;;;;6.40;2.97;;;;;;;7.71;37.36;102766.34;4974064;28;20110;-61
2023/02/28 06:09:25;;;;;;;6.45;3.15;;;;;;;7.67;36.38;102767.41;4974039;28;20405;-62
2023/02/28 06:11:50;;;;;;;6.72;3.42;;;;;;;7.68;37.21;102763.84;4991732;28;20030;-62
2023/02/28 06:14:18;;;;;;;5.57;2.97;;;;;;;7.67;36.39;102772.75;4966584;28;20057;-61
2023/02/28 06:16:43;;;;;;;3.63;2.42;;;;;;;7.67;37.72;102770.09;4973880;28;20027;-61
2023/02/28 06:19:09;;;;;;;5.30;2.83;;;;;;;7.67;37.65;102770.09;4976649;28;20126;-61
2023/02/28 06:21:35;;;;;;;3.42;2.70;;;;;;;7.65;37.87;102778.13;4993491;28;20551;-61
2023/02/28 06:24:01;;;;;;;8.85;2.88;;;;;;;7.66;36.36;102777.22;4996138;28;20109;-61
2023/02/28 06:26:26;;;;;;;5.70;3.00;;;;;;;7.64;36.50;102784.41;4977066;28;20030;-61
2023/02/28 06:28:52;;;;;;;7.55;2.72;;;;;;;7.62;36.88;102784.47;4981710;28;20034;-61
2023/02/28 06:31:18;;;;;;;7.10;3.00;;;;;;;7.62;36.80;102787.13;5002266;28;20036;-61
2023/02/28 06:33:45;;;;;;;6.85;2.85;;;;;;;7.61;37.56;102790.75;4983091;28;20074;-62
2023/02/28 06:36:11;;;;;;;7.45;2.65;;;;;;;7.61;37.38;102782.75;4993732;28;20474;-61
2023/02/28 06:38:37;;;;;;;6.70;2.72;;;;;;;7.59;36.67;102778.41;4972931;28;20038;-61
2023/02/28 06:41:03;;;;;;;4.20;2.95;;;;;;;7.62;37.38;102787.13;4957265;28;20045;-61
2023/02/28 06:43:31;;;;;;;4.65;2.60;;;;;;;7.62;37.03;102795.13;4972997;28;20027;-62
2023/02/28 06:45:57;;;;;;;4.82;2.67;;;;;;;7.71;36.36;102791.22;4973220;28;20062;-61
2023/02/28 06:48:23;;;;;;;4.53;2.30;;;;;;;7.80;37.05;102789.97;4972807;28;20035;-61
2023/02/28 06:50:49;;;;;;;7.78;3.45;;;;;;;7.86;36.92;102787.06;4973372;28;20022;-61
2023/02/28 06:53:14;;;;;;;7.75;3.22;;;;;;;8.00;37.64;102784.69;4973107;28;20054;-61
2023/02/28 06:55:40;;;;;;;6.47;3.00;;;;;;;8.12;37.53;102792.19;4973208;28;20412;-61
2023/02/28 06:58:14;;;;;;;5.07;2.83;;;;;;;8.23;36.88;102799.72;4989291;28;20038;-62
2023/02/28 07:00:43;;;;;;;7.68;3.05;;;;;;;8.35;36.10;102805.44;4972940;28;20039;-61
2023/02/28 07:03:09;;;;;;;3.80;2.88;;;;;;;8.47;37.42;102810.25;4973934;28;20031;-61
2023/02/28 07:05:35;;;;;;;7.85;2.65;;;;;;;8.57;36.20;102816.91;4956930;28;20046;-61
2023/02/28 07:08:01;;;;;;;7.45;2.85;;;;;;;8.69;36.43;102819.03;4957095;28;20026;-61
2023/02/28 07:10:27;;;;;;;9.02;2.83;;;;;;;8.76;37.18;102816.97;4989229;28;20042;-61
2023/02/28 07:12:52;;;;;;;5.88;2.47;;;;;;;8.90;37.03;102819.91;4974159;28;20114;-61
2023/02/28 07:15:17;;;;;;;7.85;3.35;;;;;;;9.01;35.72;102822.06;4988945;28;20118;-62
2023/02/28 07:17:43;;;;;;;5.75;2.17;;;;;;;9.12;36.34;102819.78;4973288;28;20035;-62
2023/02/28 07:20:09;;;;;;;4.32;2.85;;;;;;;9.25;36.41;102820.94;4973920;28;20117;-61
2023/02/28 07:22:34;;;;;;;3.67;2.20;;;;;;;9.40;35.81;102825.56;4975661;28;20068;-62
2023/02/28 07:24:59;;;;;;;7.57;3.05;;;;;;;9.55;36.32;102824.81;4976699;28;20033;-62
2023/02/28 07:27:25;;;;;;;5.97;2.72;;;;;;;9.69;35.45;102826.81;4976721;28;20038;-61
2023/02/28 07:29:51;;;;;;;9.63;2.58;;;;;;;9.80;36.09;102829.84;4978101;28;20059;-61
2023/02/28 07:32:17;;;;;;;5.93;2.58;;;;;;;9.93;36.25;102821.16;4992745;28;20034;-61
2023/02/28 07:34:42;;;;;;;10.02;2.85;;;;;;;10.06;35.65;102823.22;4976459;28;20086;-62
2023/02/28 07:37:08;;;;;;;7.00;2.85;;;;;;;10.18;36.22;102825.31;4977494;28;20122;-61
2023/02/28 07:39:33;;;;;;;8.55;2.95;;;;;;;10.33;35.55;102829.91;4977577;28;20022;-62
2023/02/28 07:41:59;;;;;;;6.30;3.60;;;;;;;10.41;35.75;102823.19;4960743;28;20035;-62
2023/02/28 07:44:25;;;;;;;5.57;2.70;;;;;;;10.52;36.03;102819.97;4976543;28;20418;-61
2023/02/28 07:46:51;;;;;;;7.82;3.22;;;;;;;10.65;35.70;102825.53;4977543;28;20035;-62
2023/02/28 07:49:16;;;;;;;4.13;2.50;;;;;;;10.73;35.55;102813.47;4976227;28;20395;-61
2023/02/28 07:51:41;;;;;;;9.75;3.25;;;;;;;10.86;35.68;102811.00;4976276;28;20434;-62
2023/02/28 07:54:07;;;;;;;4.38;2.10;;;;;;;11.00;35.32;102817.34;4977899;28;20059;-61
2023/02/28 07:56:33;;;;;;;5.28;2.80;;;;;;;11.15;35.56;102804.03;4976105;28;20035;-61
2023/02/28 07:58:58;;;;;;;7.53;3.17;;;;;;;11.29;35.40;102809.50;4977246;28;20402;-61
2023/02/28 08:01:23;;;;;;;7.60;2.13;;;;;;;11.41;35.34;102812.41;4959982;28;20042;-62
2023/02/28 08:03:49;;;;;;;7.65;2.65;;;;;;;11.53;34.93;102805.47;4977222;28;20491;-62
2023/02/28 08:06:18;;;;;;;4.28;2.40;;;;;;;11.74;34.65;102816.81;4976365;28;20114;-62
2023/02/28 08:08:44;;;;;;;6.97;2.60;;;;;;;11.92;34.36;102807.72;4975944;28;20114;-62
2023/02/28 08:11:09;;;;;;;6.72;2.38;;;;;;;12.12;34.80;102821.69;4975960;28;20050;-61
2023/02/28 08:13:34;;;;;;;10.82;2.38;;;;;;;12.33;34.01;102821.38;4975761;28;20066;-61
2023/02/28 08:16:01;;;;;;;6.47;2.47;;;;;;;12.53;33.91;102823.75;4991950;28;20051;-61
2023/02/28 08:18:27;;;;;;;3.15;2.08;;;;;;;12.70;34.03;102823.59;4975679;28;20029;-62
2023/02/28 08:20:52;;;;;;;7.75;2.38;;;;;;;12.91;34.35;102824.94;4977401;28;20386;-62
2023/02/28 08:23:18;;;;;;;4.93;2.28;;;;;;;13.07;34.31;102817.69;4976825;28;20086;-61
2023/02/28 08:25:44;;;;;;;4.28;2.50;;;;;;;13.26;34.30;102823.63;4991724;28;20027;-61
2023/02/28 08:28:09;;;;;;;4.57;2.53;;;;;;;13.43;33.41;102820.72;4975659;28;20078;-62
2023/02/28 08:30:35;;;;;;;7.20;2.08;;;;;;;13.63;33.74;102827.50;4975622;28;20031;-62
2023/02/28 08:33:01;;;;;;;4.03;2.35;;;;;;;13.84;33.65;102830.63;4974742;28;20029;-61
2023/02/28 08:35:27;;;;;;;6.53;2.80;;;;;;;14.00;32.83;102826.81;4975543;28;20035;-62
2023/02/28 08:37:52;;;;;;;3.58;2.50;;;;;;;14.14;32.50;102823.19;4975370;28;20053;-62
2023/02/28 08:40:20;;;;;;;3.50;1.77;;;;;;;14.28;33.32;102827.66;4959114;28;20634;-61
2023/02/28 08:42:45;;;;;;;2.25;1.77;;;;;;;14.41;33.33;102821.34;4991445;28;20390;-62
2023/02/28 08:45:12;;;;;;;2.72;1.55;;;;;;;14.50;33.31;102819.84;4976810;28;20542;-62
2023/02/28 08:47:37;;;;;;;7.07;2.10;;;;;;;14.60;32.46;102812.00;4975256;28;20045;-62
2023/02/28 08:50:03;;;;;;;4.57;2.22;;;;;;;14.73;32.23;102811.03;4975214;28;20039;-62
2023/02/28 08:52:29;;;;;;;5.85;1.60;;;;;;;14.83;32.32;102805.84;4988870;28;20046;-62
2023/02/28 08:54:54;;;;;;;3.17;1.77;;;;;;;14.97;32.36;102805.72;4994494;28;20084;-62
2023/02/28 08:57:19;;;;;;;6.38;2.40;;;;;;;15.13;31.34;102798.28;4994510;28;20110;-62
2023/02/28 08:59:45;;;;;;;3.33;2.25;;;;;;;15.31;32.07;102802.34;4978614;28;20383;-62
2023/02/28 09:02:13;;;;;;;2.53;1.85;;;;;;;15.50;31.29;102810.84;4994385;28;20054;-62
2023/02/28 09:04:38;;;;;;;2.70;1.95;;;;;;;15.66;31.15;102802.50;4994369;28;20512;-62
2023/02/28 09:07:04;;;;;;;6.25;2.20;;;;;;;15.80;31.47;102804.19;4995593;28;20042;-62
2023/02/28 09:09:29;;;;;;;6.88;2.13;;;;;;;15.94;30.64;102802.16;4977706;28;20294;-62
2023/02/28 09:11:56;;;;;;;2.72;1.92;;;;;;;16.05;30.63;102788.69;4978284;28;20405;-62
2023/02/28 09:14:21;;;;;;;3.47;1.58;;;;;;;16.27;31.12;102799.56;4978101;28;20080;-62
2023/02/28 09:16:46;;;;;;;3.30;1.50;;;;;;;16.45;30.59;102796.44;4977822;28;20443;-62
2023/02/28 09:19:12;;;;;;;1.90;1.45;;;;;;;16.58;31.15;102792.69;4994032;28;20038;-62
2023/02/28 09:21:37;;;;;;;3.58;1.60;;;;;;;16.65;29.50;102788.53;4977680;28;20549;-62
2023/02/28 09:24:03;;;;;;;2.30;1.20;;;;;;;16.75;29.68;102797.63;4994428;28;20030;-62
2023/02/28 09:26:28;;;;;;;2.05;1.40;;;;;;;16.84;30.22;102794.22;4961466;28;20039;-62
2023/02/28 09:28:55;;;;;;;1.05;1.00;;;;;;;16.87;29.36;102783.16;4995022;28;20088;-62
2023/02/28 09:31:23;;;;;;;1.55;0.93;;;;;;;16.97;29.75;102796.81;4977709;28;20030;-62
2023/02/28 09:33:49;;;;;;;1.60;1.30;;;;;;;16.98;28.56;102789.53;4993803;28;20046;-62
2023/02/28 09:36:15;;;;;;;1.75;1.27;;;;;;;17.00;29.38;102793.84;4978043;28;20105;-62
2023/02/28 09:38:40;;;;;;;0.93;0.93;;;;;;;17.14;28.67;102795.47;4993546;28;20456;-62
2023/02/28 09:41:18;;;;;;;2.92;1.20;;;;;;;17.51;27.75;102782.47;4994797;28;20034;-62
2023/02/28 09:43:46;;;;;;;4.32;1.60;;;;;;;18.38;27.86;102783.16;4977129;28;20038;-62
2023/02/28 09:46:34;;;;;;;1.30;1.20;;;;;;;21.04;24.97;102782.13;4977306;28;20034;-62
2023/02/28 09:49:07;;;;;;;2.65;0.82;;;;;;;20.31;25.31;102761.94;4977260;28;20422;-62
2023/02/28 09:52:03;;;;;;;2.70;1.38;;;;;;;19.87;25.44;102767.09;4994522;28;20104;-62
2023/02/28 09:54:30;;;;;;;1.48;1.13;;;;;;;19.85;26.22;102769.94;4977025;28;20030;-63
2023/02/28 09:57:33;;;;;;;2.15;1.45;;;;;;;19.95;26.08;102773.53;4993879;28;20113;-62
2023/02/28 10:00:10;;;;;;;1.58;1.00;;;;;;;20.06;24.78;102767.09;4994554;28;20076;-62
2023/02/28 10:02:48;;;;;;;1.45;1.08;;;;;;;20.12;25.36;102767.38;4994385;28;20034;-62
2023/02/28 10:05:17;;;;;;;1.10;1.00;;;;;;;20.31;24.60;102767.41;4994296;28;20034;-62
2023/02/28 10:08:08;;;;;;;1.52;1.20;;;;;;;20.41;24.31;102766.53;4961011;28;20026;-62
2023/02/28 10:10:55;;;;;;;1.85;1.25;;;;;;;20.50;24.61;102771.06;4968975;28;20038;-62
2023/02/28 10:13:24;;;;;;;1.90;1.10;;;;;;;20.79;24.11;102774.59;4976830;28;20572;-62
2023/02/28 10:15:55;;;;;;;1.00;0.93;;;;;;;21.01;23.83;102776.97;4993875;28;20126;-62
2023/02/28 10:18:25;;;;;;;0.88;0.88;;;;;;;21.08;23.57;102780.81;4976665;28;20023;-63
2023/02/28 10:20:52;;;;;;;2.05;0.80;;;;;;;21.16;24.30;102775.47;4977089;28;20018;-62
2023/02/28 10:23:25;;;;;;;4.07;1.00;;;;;;;21.34;22.94;102778.25;4976644;28;20460;-63
2023/02/28 10:25:55;;;;;;;1.88;1.30;;;;;;;20.72;23.78;102765.28;4976629;28;20046;-62
2023/02/28 10:28:20;;;;;;;6.82;1.00;;;;;;;21.08;23.69;102771.81;4976564;28;20114;-63
2023/02/28 10:30:51;;;;;;;2.88;0.90;;;;;;;21.42;23.42;102771.03;4976486;28;20117;-62
2023/02/28 10:33:38;;;;;;;3.35;1.10;;;;;;;21.71;23.23;102770.00;4976528;28;20023;-62
2023/02/28 10:36:06;;;;;;;1.08;0.70;;;;;;;21.87;23.41;102770.19;4976745;28;20044;-62
2023/02/28 10:38:37;;;;;;;1.55;0.82;;;;;;;22.07;22.96;102770.91;4976834;28;20054;-63
2023/02/28 10:41:06;;;;;;;1.48;0.63;;;;;;;22.13;22.66;102760.22;4994556;28;20030;-62
2023/02/28 10:43:31;;;;;;;1.50;0.60;;;;;;;21.92;22.14;102756.94;4977010;28;20113;-65
2023/02/28 10:46:04;;;;;;;0.75;0.75;;;;;;;21.81;22.03;102768.06;4976706;28;20622;-62
2023/02/28 10:48:32;;;;;;;;;;;;;;;22.16;21.98;102757.19;4992921;28;20022;-62
2023/02/28 10:50:58;;;;;;;3.13;0.90;;;;;;;21.25;22.62;102758.22;4994151;28;19968;-62
2023/02/28 10:53:26;;;;;;;1.75;0.80;;;;;;;21.21;23.25;102745.91;4993715;28;20046;-62
2023/02/28 10:56:02;;;;;;;2.05;1.27;;;;;;;20.69;23.46;102760.13;4991779;28;20038;-62
2023/02/28 10:58:29;;;;;;;2.15;0.70;;;;;;;21.07;22.78;102754.59;4976168;28;20038;-62
2023/02/28 11:00:55;;;;;;;0.82;0.70;;;;;;;21.43;22.03;102753.69;4993321;28;20035;-63
2023/02/28 11:03:29;;;;;;;1.08;0.90;;;;;;;21.71;22.26;102742.72;4976167;28;20437;-62
2023/02/28 11:05:55;;;;;;;1.33;0.93;;;;;;;21.76;22.32;102738.50;4976642;28;20033;-62
2023/02/28 11:08:20;;;;;;;2.83;1.10;;;;;;;21.69;22.19;102739.31;4976096;28;20038;-62
2023/02/28 11:10:57;;;;;;;0.90;0.90;;;;;;;21.66;22.41;102731.41;4976562;28;20042;-62
2023/02/28 11:13:34;;;;;;;3.63;0.90;;;;;;;21.84;22.10;102738.59;4973340;28;20030;-62
2023/02/28 11:16:03;;;;;;;4.00;0.98;;;;;;;22.03;21.72;102729.41;4976007;28;20064;-62
2023/02/28 11:18:38;;;;;;;3.17;1.00;;;;;;;22.18;21.35;102736.03;4975781;28;20494;-62
2023/02/28 11:21:03;;;;;;;0.90;0.90;;;;;;;22.28;21.33;102736.78;4993776;28;20080;-62
2023/02/28 11:23:30;;;;;;;4.22;0.80;;;;;;;22.34;20.94;102729.81;4992253;28;20121;-62
2023/02/28 11:26:01;;;;;;;0.85;0.80;;;;;;;22.38;21.16;102729.38;4975982;28;20121;-62
2023/02/28 11:28:31;;;;;;;2.15;0.98;;;;;;;22.33;21.47;102739.91;4976034;28;20034;-62
2023/02/28 11:31:05;;;;;;;2.33;0.77;;;;;;;22.09;20.43;102741.56;4976357;28;20055;-62
2023/02/28 11:33:55;;;;;;;4.35;0.98;;;;;;;21.99;20.87;102733.47;4992019;28;20374;-62
2023/02/28 11:36:29;;;;;;;2.97;0.98;;;;;;;21.25;21.25;102741.88;4976440;28;20026;-62
2023/02/28 11:39:15;;;;;;;1.10;1.00;;;;;;;20.49;21.55;102726.66;4993987;28;20022;-62